sensor_id;sensor_type;location;lat;lon;timestamp;P1;durP1;ratioP1;P2;durP2;ratioP2
6282;SDS011;3174;53.486;9.568;2023-04-15T00:02:22;4.77;;;3.00;;
6282;SDS011;3174;53.486;9.568;2023-04-15T00:04:50;6.20;;;3.30;;
6282;SDS011;3174;53.486;9.568;2023-04-15T00:07:18;4.40;;;2.97;;
6282;SDS011;3174;53.486;9.568;2023-04-15T00:09:46;5.47;;;2.83;;
6282;SDS011;3174;53.486;9.568;2023-04-15T00:12:14;5.07;;;3.57;;
6282;SDS011;3174;53.486;9.568;2023-04-15T00:14:43;5.20;;;3.50;;
6282;SDS011;3174;53.486;9.568;2023-04-15T00:17:11;4.20;;;2.70;;
6282;SDS011;3174;53.486;9.568;2023-04-15T00:19:39;3.73;;;2.63;;
6282;SDS011;3174;53.486;9.568;2023-04-15T00:22:07;4.27;;;3.30;;
6282;SDS011;3174;53.486;9.568;2023-04-15T00:24:35;3.43;;;2.53;;
6282;SDS011;3174;53.486;9.568;2023-04-15T00:27:03;4.57;;;3.00;;
6282;SDS011;3174;53.486;9.568;2023-04-15T00:29:32;4.03;;;2.57;;
6282;SDS011;3174;53.486;9.568;2023-04-15T00:32:02;4.20;;;2.70;;
6282;SDS011;3174;53.486;9.568;2023-04-15T00:34:30;6.20;;;2.90;;
6282;SDS011;3174;53.486;9.568;2023-04-15T00:36:58;4.77;;;2.90;;
6282;SDS011;3174;53.486;9.568;2023-04-15T00:39:26;3.80;;;2.10;;
6282;SDS011;3174;53.486;9.568;2023-04-15T00:41:54;5.13;;;2.70;;
6282;SDS011;3174;53.486;9.568;2023-04-15T00:44:23;4.43;;;3.07;;
6282;SDS011;3174;53.486;9.568;2023-04-15T00:46:51;4.70;;;2.97;;
6282;SDS011;3174;53.486;9.568;2023-04-15T00:49:20;3.93;;;2.60;;
6282;SDS011;3174;53.486;9.568;2023-04-15T00:51:49;4.50;;;2.90;;
6282;SDS011;3174;53.486;9.568;2023-04-15T00:54:17;6.00;;;3.70;;
6282;SDS011;3174;53.486;9.568;2023-04-15T00:56:45;4.77;;;3.37;;
6282;SDS011;3174;53.486;9.568;2023-04-15T00:59:13;5.70;;;3.87;;
6282;SDS011;3174;53.486;9.568;2023-04-15T01:01:42;6.13;;;3.40;;
6282;SDS011;3174;53.486;9.568;2023-04-15T01:04:11;4.83;;;3.23;;
6282;SDS011;3174;53.486;9.568;2023-04-15T01:06:40;5.80;;;3.60;;
6282;SDS011;3174;53.486;9.568;2023-04-15T01:09:08;4.40;;;3.03;;
6282;SDS011;3174;53.486;9.568;2023-04-15T01:11:37;4.33;;;2.90;;
6282;SDS011;3174;53.486;9.568;2023-04-15T01:14:05;3.93;;;2.57;;
6282;SDS011;3174;53.486;9.568;2023-04-15T01:16:33;3.87;;;2.50;;
6282;SDS011;3174;53.486;9.568;2023-04-15T01:19:02;3.53;;;2.40;;
6282;SDS011;3174;53.486;9.568;2023-04-15T01:21:30;3.67;;;2.60;;
6282;SDS011;3174;53.486;9.568;2023-04-15T01:24:00;3.87;;;2.60;;
6282;SDS011;3174;53.486;9.568;2023-04-15T01:26:29;3.50;;;2.60;;
6282;SDS011;3174;53.486;9.568;2023-04-15T01:28:57;2.77;;;2.10;;
6282;SDS011;3174;53.486;9.568;2023-04-15T01:31:26;2.90;;;2.40;;
6282;SDS011;3174;53.486;9.568;2023-04-15T01:33:54;4.00;;;2.57;;
6282;SDS011;3174;53.486;9.568;2023-04-15T01:36:22;3.07;;;2.20;;
6282;SDS011;3174;53.486;9.568;2023-04-15T01:38:50;3.33;;;2.37;;
6282;SDS011;3174;53.486;9.568;2023-04-15T01:41:20;3.47;;;2.23;;
6282;SDS011;3174;53.486;9.568;2023-04-15T01:43:50;2.33;;;1.90;;
6282;SDS011;3174;53.486;9.568;2023-04-15T01:46:18;2.70;;;2.03;;
6282;SDS011;3174;53.486;9.568;2023-04-15T01:48:46;3.20;;;2.20;;
6282;SDS011;3174;53.486;9.568;2023-04-15T01:51:14;2.77;;;2.20;;
6282;SDS011;3174;53.486;9.568;2023-04-15T01:53:43;4.57;;;2.50;;
6282;SDS011;3174;53.486;9.568;2023-04-15T01:56:11;3.60;;;2.17;;
6282;SDS011;3174;53.486;9.568;2023-04-15T01:58:42;3.27;;;2.30;;
6282;SDS011;3174;53.486;9.568;2023-04-15T02:01:11;3.70;;;2.47;;
6282;SDS011;3174;53.486;9.568;2023-04-15T02:03:40;4.60;;;2.30;;
6282;SDS011;3174;53.486;9.568;2023-04-15T02:06:08;3.03;;;2.27;;
6282;SDS011;3174;53.486;9.568;2023-04-15T02:08:36;5.20;;;2.60;;
6282;SDS011;3174;53.486;9.568;2023-04-15T02:11:04;3.80;;;2.40;;
6282;SDS011;3174;53.486;9.568;2023-04-15T02:13:32;3.00;;;2.07;;
6282;SDS011;3174;53.486;9.568;2023-04-15T02:16:01;3.23;;;1.80;;
6282;SDS011;3174;53.486;9.568;2023-04-15T02:18:31;4.50;;;2.27;;
6282;SDS011;3174;53.486;9.568;2023-04-15T02:20:59;3.77;;;2.30;;
6282;SDS011;3174;53.486;9.568;2023-04-15T02:23:27;2.97;;;2.10;;
6282;SDS011;3174;53.486;9.568;2023-04-15T02:25:55;2.97;;;2.03;;
6282;SDS011;3174;53.486;9.568;2023-04-15T02:28:23;3.60;;;2.50;;
6282;SDS011;3174;53.486;9.568;2023-04-15T02:30:51;3.13;;;1.90;;
6282;SDS011;3174;53.486;9.568;2023-04-15T02:33:20;2.60;;;2.10;;
6282;SDS011;3174;53.486;9.568;2023-04-15T02:35:49;2.70;;;2.10;;
6282;SDS011;3174;53.486;9.568;2023-04-15T02:38:18;3.30;;;2.30;;
6282;SDS011;3174;53.486;9.568;2023-04-15T02:40:46;3.93;;;2.63;;
6282;SDS011;3174;53.486;9.568;2023-04-15T02:43:15;3.27;;;2.20;;
6282;SDS011;3174;53.486;9.568;2023-04-15T02:48:12;4.37;;;2.50;;
6282;SDS011;3174;53.486;9.568;2023-04-15T02:50:40;4.93;;;2.50;;
6282;SDS011;3174;53.486;9.568;2023-04-15T02:53:09;3.70;;;2.47;;
6282;SDS011;3174;53.486;9.568;2023-04-15T02:55:38;3.63;;;2.33;;
6282;SDS011;3174;53.486;9.568;2023-04-15T02:58:08;2.60;;;1.80;;
6282;SDS011;3174;53.486;9.568;2023-04-15T03:00:36;3.10;;;2.30;;
6282;SDS011;3174;53.486;9.568;2023-04-15T03:03:04;3.90;;;2.30;;
6282;SDS011;3174;53.486;9.568;2023-04-15T03:05:33;4.70;;;2.70;;
6282;SDS011;3174;53.486;9.568;2023-04-15T03:08:01;3.60;;;2.50;;
6282;SDS011;3174;53.486;9.568;2023-04-15T03:10:30;3.90;;;2.60;;
6282;SDS011;3174;53.486;9.568;2023-04-15T03:12:58;2.70;;;2.07;;
6282;SDS011;3174;53.486;9.568;2023-04-15T03:15:26;4.00;;;2.47;;
6282;SDS011;3174;53.486;9.568;2023-04-15T03:17:54;2.77;;;2.17;;
6282;SDS011;3174;53.486;9.568;2023-04-15T03:20:22;4.40;;;2.70;;
6282;SDS011;3174;53.486;9.568;2023-04-15T03:22:50;3.17;;;2.20;;
6282;SDS011;3174;53.486;9.568;2023-04-15T03:25:18;3.77;;;2.30;;
6282;SDS011;3174;53.486;9.568;2023-04-15T03:27:47;4.17;;;2.30;;
6282;SDS011;3174;53.486;9.568;2023-04-15T03:30:15;4.30;;;2.63;;
6282;SDS011;3174;53.486;9.568;2023-04-15T03:32:43;4.57;;;2.23;;
6282;SDS011;3174;53.486;9.568;2023-04-15T03:35:11;4.13;;;2.63;;
6282;SDS011;3174;53.486;9.568;2023-04-15T03:37:39;3.40;;;2.63;;
6282;SDS011;3174;53.486;9.568;2023-04-15T03:40:07;3.63;;;2.00;;
6282;SDS011;3174;53.486;9.568;2023-04-15T03:42:36;3.17;;;1.90;;
6282;SDS011;3174;53.486;9.568;2023-04-15T03:45:06;2.53;;;2.03;;
6282;SDS011;3174;53.486;9.568;2023-04-15T03:47:34;3.23;;;2.40;;
6282;SDS011;3174;53.486;9.568;2023-04-15T03:50:02;3.27;;;2.13;;
6282;SDS011;3174;53.486;9.568;2023-04-15T03:52:31;3.73;;;2.73;;
6282;SDS011;3174;53.486;9.568;2023-04-15T03:54:59;3.57;;;2.50;;
6282;SDS011;3174;53.486;9.568;2023-04-15T03:57:26;2.70;;;2.00;;
6282;SDS011;3174;53.486;9.568;2023-04-15T03:59:54;3.73;;;2.10;;
6282;SDS011;3174;53.486;9.568;2023-04-15T04:02:24;3.17;;;2.00;;
6282;SDS011;3174;53.486;9.568;2023-04-15T04:04:53;3.97;;;2.20;;
6282;SDS011;3174;53.486;9.568;2023-04-15T04:07:22;2.97;;;2.13;;
6282;SDS011;3174;53.486;9.568;2023-04-15T04:09:50;3.63;;;2.43;;
6282;SDS011;3174;53.486;9.568;2023-04-15T04:12:18;2.97;;;1.97;;
6282;SDS011;3174;53.486;9.568;2023-04-15T04:14:46;3.60;;;2.20;;
6282;SDS011;3174;53.486;9.568;2023-04-15T04:17:14;2.73;;;2.00;;
6282;SDS011;3174;53.486;9.568;2023-04-15T04:19:44;2.47;;;2.07;;
6282;SDS011;3174;53.486;9.568;2023-04-15T04:22:12;3.57;;;2.67;;
6282;SDS011;3174;53.486;9.568;2023-04-15T04:24:39;3.37;;;2.20;;
6282;SDS011;3174;53.486;9.568;2023-04-15T04:27:07;3.13;;;2.23;;
6282;SDS011;3174;53.486;9.568;2023-04-15T04:29:36;4.63;;;2.53;;
6282;SDS011;3174;53.486;9.568;2023-04-15T04:32:04;2.30;;;1.80;;
6282;SDS011;3174;53.486;9.568;2023-04-15T04:34:32;3.27;;;2.20;;
6282;SDS011;3174;53.486;9.568;2023-04-15T04:37:01;2.57;;;2.37;;
6282;SDS011;3174;53.486;9.568;2023-04-15T04:39:29;3.57;;;2.57;;
6282;SDS011;3174;53.486;9.568;2023-04-15T04:41:58;2.33;;;2.10;;
6282;SDS011;3174;53.486;9.568;2023-04-15T04:44:26;4.70;;;3.00;;
6282;SDS011;3174;53.486;9.568;2023-04-15T04:46:54;3.80;;;2.60;;
6282;SDS011;3174;53.486;9.568;2023-04-15T04:49:22;3.17;;;2.37;;
6282;SDS011;3174;53.486;9.568;2023-04-15T04:51:50;4.07;;;2.10;;
6282;SDS011;3174;53.486;9.568;2023-04-15T04:54:20;4.37;;;2.90;;
6282;SDS011;3174;53.486;9.568;2023-04-15T04:56:47;3.73;;;2.60;;
6282;SDS011;3174;53.486;9.568;2023-04-15T04:59:15;4.17;;;2.63;;
6282;SDS011;3174;53.486;9.568;2023-04-15T05:01:44;4.10;;;2.60;;
6282;SDS011;3174;53.486;9.568;2023-04-15T05:04:12;3.93;;;2.77;;
6282;SDS011;3174;53.486;9.568;2023-04-15T05:06:41;3.23;;;2.50;;
6282;SDS011;3174;53.486;9.568;2023-04-15T05:09:09;5.93;;;3.10;;
6282;SDS011;3174;53.486;9.568;2023-04-15T05:11:38;4.47;;;2.80;;
6282;SDS011;3174;53.486;9.568;2023-04-15T05:14:06;4.60;;;2.97;;
6282;SDS011;3174;53.486;9.568;2023-04-15T05:16:34;4.57;;;2.57;;
6282;SDS011;3174;53.486;9.568;2023-04-15T05:19:02;5.23;;;3.30;;
6282;SDS011;3174;53.486;9.568;2023-04-15T05:21:30;3.50;;;2.60;;
6282;SDS011;3174;53.486;9.568;2023-04-15T05:23:58;6.37;;;3.33;;
6282;SDS011;3174;53.486;9.568;2023-04-15T05:26:26;5.27;;;2.93;;
6282;SDS011;3174;53.486;9.568;2023-04-15T05:28:55;4.67;;;2.93;;
6282;SDS011;3174;53.486;9.568;2023-04-15T05:31:24;4.97;;;2.60;;
6282;SDS011;3174;53.486;9.568;2023-04-15T05:33:52;5.53;;;3.30;;
6282;SDS011;3174;53.486;9.568;2023-04-15T05:36:20;5.70;;;3.40;;
6282;SDS011;3174;53.486;9.568;2023-04-15T05:38:48;3.50;;;2.30;;
6282;SDS011;3174;53.486;9.568;2023-04-15T05:41:16;5.40;;;2.97;;
6282;SDS011;3174;53.486;9.568;2023-04-15T05:43:45;5.50;;;3.47;;
6282;SDS011;3174;53.486;9.568;2023-04-15T05:46:14;5.93;;;3.83;;
6282;SDS011;3174;53.486;9.568;2023-04-15T05:48:42;5.67;;;3.53;;
6282;SDS011;3174;53.486;9.568;2023-04-15T05:51:10;5.83;;;3.80;;
6282;SDS011;3174;53.486;9.568;2023-04-15T05:53:38;5.97;;;3.67;;
6282;SDS011;3174;53.486;9.568;2023-04-15T05:56:07;5.73;;;3.77;;
6282;SDS011;3174;53.486;9.568;2023-04-15T05:58:35;8.83;;;3.60;;
6282;SDS011;3174;53.486;9.568;2023-04-15T06:01:03;6.00;;;3.77;;
6282;SDS011;3174;53.486;9.568;2023-04-15T06:03:33;6.43;;;3.70;;
6282;SDS011;3174;53.486;9.568;2023-04-15T06:06:01;7.93;;;4.53;;
6282;SDS011;3174;53.486;9.568;2023-04-15T06:08:29;6.50;;;4.13;;
6282;SDS011;3174;53.486;9.568;2023-04-15T06:10:57;4.17;;;3.17;;
6282;SDS011;3174;53.486;9.568;2023-04-15T06:13:25;5.70;;;3.80;;
6282;SDS011;3174;53.486;9.568;2023-04-15T06:15:53;5.27;;;3.50;;
6282;SDS011;3174;53.486;9.568;2023-04-15T06:18:21;5.63;;;3.80;;
6282;SDS011;3174;53.486;9.568;2023-04-15T06:20:50;8.50;;;4.87;;
6282;SDS011;3174;53.486;9.568;2023-04-15T06:23:18;8.23;;;4.57;;
6282;SDS011;3174;53.486;9.568;2023-04-15T06:25:46;6.90;;;4.00;;
6282;SDS011;3174;53.486;9.568;2023-04-15T06:28:14;6.23;;;4.03;;
6282;SDS011;3174;53.486;9.568;2023-04-15T06:30:42;6.30;;;3.70;;
6282;SDS011;3174;53.486;9.568;2023-04-15T06:33:10;7.97;;;4.57;;
6282;SDS011;3174;53.486;9.568;2023-04-15T06:35:38;9.53;;;5.47;;
6282;SDS011;3174;53.486;9.568;2023-04-15T06:38:07;7.03;;;4.17;;
6282;SDS011;3174;53.486;9.568;2023-04-15T06:40:35;9.23;;;5.50;;
6282;SDS011;3174;53.486;9.568;2023-04-15T06:43:03;6.40;;;3.90;;
6282;SDS011;3174;53.486;9.568;2023-04-15T06:45:31;5.90;;;3.97;;
6282;SDS011;3174;53.486;9.568;2023-04-15T06:47:59;11.87;;;5.77;;
6282;SDS011;3174;53.486;9.568;2023-04-15T06:50:27;7.53;;;4.67;;
6282;SDS011;3174;53.486;9.568;2023-04-15T06:52:55;9.03;;;5.10;;
6282;SDS011;3174;53.486;9.568;2023-04-15T06:55:25;8.07;;;4.40;;
6282;SDS011;3174;53.486;9.568;2023-04-15T06:57:53;8.20;;;4.10;;
6282;SDS011;3174;53.486;9.568;2023-04-15T07:00:20;11.70;;;5.87;;
6282;SDS011;3174;53.486;9.568;2023-04-15T07:02:48;8.97;;;5.57;;
6282;SDS011;3174;53.486;9.568;2023-04-15T07:05:17;8.40;;;4.87;;
6282;SDS011;3174;53.486;9.568;2023-04-15T07:07:45;7.50;;;4.57;;
6282;SDS011;3174;53.486;9.568;2023-04-15T07:10:13;8.73;;;5.50;;
6282;SDS011;3174;53.486;9.568;2023-04-15T07:12:42;9.03;;;5.07;;
6282;SDS011;3174;53.486;9.568;2023-04-15T07:15:11;9.57;;;5.23;;
6282;SDS011;3174;53.486;9.568;2023-04-15T07:17:39;7.87;;;5.43;;
6282;SDS011;3174;53.486;9.568;2023-04-15T07:20:08;9.47;;;5.20;;
6282;SDS011;3174;53.486;9.568;2023-04-15T07:22:38;9.77;;;5.03;;
6282;SDS011;3174;53.486;9.568;2023-04-15T07:25:06;9.90;;;5.63;;
6282;SDS011;3174;53.486;9.568;2023-04-15T07:27:35;10.50;;;6.27;;
6282;SDS011;3174;53.486;9.568;2023-04-15T07:30:05;11.47;;;6.00;;
6282;SDS011;3174;53.486;9.568;2023-04-15T07:32:34;12.73;;;6.43;;
6282;SDS011;3174;53.486;9.568;2023-04-15T07:35:03;11.53;;;6.07;;
6282;SDS011;3174;53.486;9.568;2023-04-15T07:37:31;12.47;;;6.93;;
6282;SDS011;3174;53.486;9.568;2023-04-15T07:39:59;12.30;;;5.67;;
6282;SDS011;3174;53.486;9.568;2023-04-15T07:42:27;11.07;;;6.30;;
6282;SDS011;3174;53.486;9.568;2023-04-15T07:44:55;10.37;;;5.93;;
6282;SDS011;3174;53.486;9.568;2023-04-15T07:47:25;11.63;;;6.23;;
6282;SDS011;3174;53.486;9.568;2023-04-15T07:49:53;10.70;;;6.40;;
6282;SDS011;3174;53.486;9.568;2023-04-15T07:52:21;11.30;;;6.23;;
6282;SDS011;3174;53.486;9.568;2023-04-15T07:54:49;15.00;;;7.03;;
6282;SDS011;3174;53.486;9.568;2023-04-15T07:57:17;14.13;;;6.83;;
6282;SDS011;3174;53.486;9.568;2023-04-15T07:59:45;11.97;;;6.47;;
6282;SDS011;3174;53.486;9.568;2023-04-15T08:02:13;12.47;;;7.03;;
6282;SDS011;3174;53.486;9.568;2023-04-15T08:04:42;10.70;;;6.43;;
6282;SDS011;3174;53.486;9.568;2023-04-15T08:07:10;13.33;;;7.03;;
6282;SDS011;3174;53.486;9.568;2023-04-15T08:09:38;13.03;;;7.03;;
6282;SDS011;3174;53.486;9.568;2023-04-15T08:12:07;11.43;;;6.80;;
6282;SDS011;3174;53.486;9.568;2023-04-15T08:14:37;11.60;;;6.27;;
6282;SDS011;3174;53.486;9.568;2023-04-15T08:17:05;13.30;;;6.63;;
6282;SDS011;3174;53.486;9.568;2023-04-15T08:19:33;13.27;;;6.60;;
6282;SDS011;3174;53.486;9.568;2023-04-15T08:22:03;14.47;;;7.70;;
6282;SDS011;3174;53.486;9.568;2023-04-15T08:24:36;11.67;;;6.40;;
6282;SDS011;3174;53.486;9.568;2023-04-15T08:27:04;18.27;;;8.57;;
6282;SDS011;3174;53.486;9.568;2023-04-15T08:29:33;16.50;;;9.20;;
6282;SDS011;3174;53.486;9.568;2023-04-15T08:32:01;17.83;;;7.50;;
6282;SDS011;3174;53.486;9.568;2023-04-15T08:34:29;14.67;;;8.03;;
6282;SDS011;3174;53.486;9.568;2023-04-15T08:36:57;12.17;;;6.83;;
6282;SDS011;3174;53.486;9.568;2023-04-15T08:39:26;18.17;;;9.37;;
6282;SDS011;3174;53.486;9.568;2023-04-15T08:41:55;20.23;;;10.13;;
6282;SDS011;3174;53.486;9.568;2023-04-15T08:44:28;14.83;;;7.60;;
6282;SDS011;3174;53.486;9.568;2023-04-15T08:46:59;14.17;;;7.87;;
6282;SDS011;3174;53.486;9.568;2023-04-15T08:49:28;17.60;;;8.77;;
6282;SDS011;3174;53.486;9.568;2023-04-15T08:51:57;17.50;;;8.60;;
6282;SDS011;3174;53.486;9.568;2023-04-15T08:54:27;17.57;;;9.43;;
6282;SDS011;3174;53.486;9.568;2023-04-15T08:56:56;14.77;;;7.67;;
6282;SDS011;3174;53.486;9.568;2023-04-15T08:59:24;16.83;;;8.57;;
6282;SDS011;3174;53.486;9.568;2023-04-15T09:01:53;19.57;;;9.13;;
6282;SDS011;3174;53.486;9.568;2023-04-15T09:04:22;19.23;;;9.53;;
6282;SDS011;3174;53.486;9.568;2023-04-15T09:06:49;17.03;;;9.30;;
6282;SDS011;3174;53.486;9.568;2023-04-15T09:09:18;17.77;;;10.57;;
6282;SDS011;3174;53.486;9.568;2023-04-15T09:11:47;16.93;;;8.70;;
6282;SDS011;3174;53.486;9.568;2023-04-15T09:14:16;22.10;;;10.00;;
6282;SDS011;3174;53.486;9.568;2023-04-15T09:16:58;17.70;;;9.63;;
6282;SDS011;3174;53.486;9.568;2023-04-15T09:19:27;19.33;;;10.07;;
6282;SDS011;3174;53.486;9.568;2023-04-15T09:21:56;23.00;;;11.67;;
6282;SDS011;3174;53.486;9.568;2023-04-15T09:24:28;19.30;;;10.63;;
6282;SDS011;3174;53.486;9.568;2023-04-15T09:27:04;15.40;;;9.53;;
6282;SDS011;3174;53.486;9.568;2023-04-15T09:29:32;21.67;;;11.07;;
6282;SDS011;3174;53.486;9.568;2023-04-15T09:32:10;20.93;;;10.83;;
6282;SDS011;3174;53.486;9.568;2023-04-15T09:34:38;19.80;;;10.23;;
6282;SDS011;3174;53.486;9.568;2023-04-15T09:37:07;18.97;;;10.13;;
6282;SDS011;3174;53.486;9.568;2023-04-15T09:39:46;22.30;;;11.27;;
6282;SDS011;3174;53.486;9.568;2023-04-15T09:42:16;20.93;;;10.87;;
6282;SDS011;3174;53.486;9.568;2023-04-15T09:44:49;20.83;;;11.67;;
6282;SDS011;3174;53.486;9.568;2023-04-15T09:47:27;23.90;;;12.20;;
6282;SDS011;3174;53.486;9.568;2023-04-15T09:49:55;21.40;;;11.90;;
6282;SDS011;3174;53.486;9.568;2023-04-15T09:52:24;21.90;;;11.03;;
6282;SDS011;3174;53.486;9.568;2023-04-15T09:54:52;24.83;;;12.53;;
6282;SDS011;3174;53.486;9.568;2023-04-15T09:57:23;23.03;;;12.00;;
6282;SDS011;3174;53.486;9.568;2023-04-15T09:59:51;20.97;;;10.73;;
6282;SDS011;3174;53.486;9.568;2023-04-15T10:02:19;19.70;;;10.83;;
6282;SDS011;3174;53.486;9.568;2023-04-15T10:04:48;21.80;;;11.30;;
6282;SDS011;3174;53.486;9.568;2023-04-15T10:07:16;24.83;;;12.03;;
6282;SDS011;3174;53.486;9.568;2023-04-15T10:09:45;24.30;;;12.97;;
6282;SDS011;3174;53.486;9.568;2023-04-15T10:12:14;19.23;;;10.60;;
6282;SDS011;3174;53.486;9.568;2023-04-15T10:14:46;22.70;;;10.83;;
6282;SDS011;3174;53.486;9.568;2023-04-15T10:17:17;21.63;;;11.33;;
6282;SDS011;3174;53.486;9.568;2023-04-15T10:19:45;28.67;;;12.57;;
6282;SDS011;3174;53.486;9.568;2023-04-15T10:22:13;24.27;;;12.70;;
6282;SDS011;3174;53.486;9.568;2023-04-15T10:24:42;23.87;;;11.83;;
6282;SDS011;3174;53.486;9.568;2023-04-15T10:27:10;22.93;;;12.00;;
6282;SDS011;3174;53.486;9.568;2023-04-15T10:29:38;21.97;;;12.43;;
6282;SDS011;3174;53.486;9.568;2023-04-15T10:32:08;21.83;;;11.57;;
6282;SDS011;3174;53.486;9.568;2023-04-15T10:34:37;20.33;;;11.73;;
6282;SDS011;3174;53.486;9.568;2023-04-15T10:37:08;24.70;;;12.43;;
6282;SDS011;3174;53.486;9.568;2023-04-15T10:39:40;25.60;;;12.60;;
6282;SDS011;3174;53.486;9.568;2023-04-15T10:42:09;23.40;;;11.83;;
6282;SDS011;3174;53.486;9.568;2023-04-15T10:44:38;24.57;;;12.37;;
6282;SDS011;3174;53.486;9.568;2023-04-15T10:47:10;24.27;;;12.63;;
6282;SDS011;3174;53.486;9.568;2023-04-15T10:49:42;27.63;;;13.93;;
6282;SDS011;3174;53.486;9.568;2023-04-15T10:52:11;21.10;;;12.37;;
6282;SDS011;3174;53.486;9.568;2023-04-15T10:54:39;22.10;;;11.97;;
6282;SDS011;3174;53.486;9.568;2023-04-15T10:57:08;23.00;;;12.50;;
6282;SDS011;3174;53.486;9.568;2023-04-15T11:02:41;26.00;;;12.63;;
6282;SDS011;3174;53.486;9.568;2023-04-15T11:05:11;22.50;;;12.13;;
6282;SDS011;3174;53.486;9.568;2023-04-15T11:07:40;20.53;;;11.33;;
6282;SDS011;3174;53.486;9.568;2023-04-15T11:13:20;19.63;;;12.00;;
6282;SDS011;3174;53.486;9.568;2023-04-15T11:15:56;22.00;;;12.00;;
6282;SDS011;3174;53.486;9.568;2023-04-15T11:18:29;21.77;;;11.60;;
6282;SDS011;3174;53.486;9.568;2023-04-15T11:20:59;21.27;;;12.30;;
6282;SDS011;3174;53.486;9.568;2023-04-15T11:23:32;25.63;;;13.40;;
6282;SDS011;3174;53.486;9.568;2023-04-15T11:26:02;22.50;;;11.73;;
6282;SDS011;3174;53.486;9.568;2023-04-15T11:28:35;21.83;;;11.53;;
6282;SDS011;3174;53.486;9.568;2023-04-15T11:31:05;23.17;;;11.97;;
6282;SDS011;3174;53.486;9.568;2023-04-15T11:33:37;24.80;;;11.70;;
6282;SDS011;3174;53.486;9.568;2023-04-15T11:36:11;21.73;;;11.80;;
6282;SDS011;3174;53.486;9.568;2023-04-15T11:38:43;22.30;;;12.20;;
6282;SDS011;3174;53.486;9.568;2023-04-15T11:41:13;21.97;;;12.13;;
6282;SDS011;3174;53.486;9.568;2023-04-15T11:43:41;21.87;;;11.57;;
6282;SDS011;3174;53.486;9.568;2023-04-15T11:46:09;24.83;;;13.00;;
6282;SDS011;3174;53.486;9.568;2023-04-15T11:48:41;20.23;;;11.30;;
6282;SDS011;3174;53.486;9.568;2023-04-15T11:51:09;21.33;;;12.30;;
6282;SDS011;3174;53.486;9.568;2023-04-15T11:53:38;23.30;;;11.67;;
6282;SDS011;3174;53.486;9.568;2023-04-15T11:56:09;21.77;;;10.80;;
6282;SDS011;3174;53.486;9.568;2023-04-15T11:58:38;21.00;;;10.37;;
6282;SDS011;3174;53.486;9.568;2023-04-15T12:01:07;24.17;;;12.10;;
6282;SDS011;3174;53.486;9.568;2023-04-15T12:03:36;16.77;;;10.60;;
6282;SDS011;3174;53.486;9.568;2023-04-15T12:06:07;19.70;;;11.23;;
6282;SDS011;3174;53.486;9.568;2023-04-15T12:08:50;19.67;;;10.60;;
6282;SDS011;3174;53.486;9.568;2023-04-15T12:11:27;19.83;;;10.63;;
6282;SDS011;3174;53.486;9.568;2023-04-15T12:14:03;22.63;;;11.67;;
6282;SDS011;3174;53.486;9.568;2023-04-15T12:16:33;19.73;;;11.60;;
6282;SDS011;3174;53.486;9.568;2023-04-15T12:19:14;18.53;;;10.30;;
6282;SDS011;3174;53.486;9.568;2023-04-15T12:21:46;21.90;;;10.93;;
6282;SDS011;3174;53.486;9.568;2023-04-15T12:24:14;19.63;;;10.57;;
6282;SDS011;3174;53.486;9.568;2023-04-15T12:26:47;17.00;;;10.87;;
6282;SDS011;3174;53.486;9.568;2023-04-15T12:29:17;18.90;;;10.17;;
6282;SDS011;3174;53.486;9.568;2023-04-15T12:31:48;18.43;;;9.73;;
6282;SDS011;3174;53.486;9.568;2023-04-15T12:34:17;17.33;;;10.10;;
6282;SDS011;3174;53.486;9.568;2023-04-15T12:36:47;15.97;;;9.97;;
6282;SDS011;3174;53.486;9.568;2023-04-15T12:39:15;14.90;;;10.07;;
6282;SDS011;3174;53.486;9.568;2023-04-15T12:41:43;15.13;;;9.30;;
6282;SDS011;3174;53.486;9.568;2023-04-15T12:44:11;13.97;;;9.20;;
6282;SDS011;3174;53.486;9.568;2023-04-15T12:46:39;13.07;;;8.23;;
6282;SDS011;3174;53.486;9.568;2023-04-15T12:49:08;13.80;;;8.43;;
6282;SDS011;3174;53.486;9.568;2023-04-15T12:51:36;11.80;;;8.33;;
6282;SDS011;3174;53.486;9.568;2023-04-15T12:54:05;12.23;;;7.53;;
6282;SDS011;3174;53.486;9.568;2023-04-15T12:56:33;14.77;;;7.23;;
6282;SDS011;3174;53.486;9.568;2023-04-15T12:59:01;11.10;;;6.13;;
6282;SDS011;3174;53.486;9.568;2023-04-15T13:01:31;9.83;;;6.37;;
6282;SDS011;3174;53.486;9.568;2023-04-15T13:03:59;9.17;;;6.17;;
6282;SDS011;3174;53.486;9.568;2023-04-15T13:06:27;9.90;;;6.67;;
6282;SDS011;3174;53.486;9.568;2023-04-15T13:08:55;9.17;;;5.97;;
6282;SDS011;3174;53.486;9.568;2023-04-15T13:11:25;9.67;;;5.90;;
6282;SDS011;3174;53.486;9.568;2023-04-15T13:13:56;7.07;;;5.33;;
6282;SDS011;3174;53.486;9.568;2023-04-15T13:16:24;7.20;;;4.90;;
6282;SDS011;3174;53.486;9.568;2023-04-15T13:18:52;7.70;;;5.17;;
6282;SDS011;3174;53.486;9.568;2023-04-15T13:21:20;6.50;;;4.77;;
6282;SDS011;3174;53.486;9.568;2023-04-15T13:23:48;9.30;;;5.33;;
6282;SDS011;3174;53.486;9.568;2023-04-15T13:26:17;7.63;;;4.97;;
6282;SDS011;3174;53.486;9.568;2023-04-15T13:28:46;5.93;;;4.50;;
6282;SDS011;3174;53.486;9.568;2023-04-15T13:31:14;8.40;;;4.63;;
6282;SDS011;3174;53.486;9.568;2023-04-15T13:33:42;7.93;;;4.80;;
6282;SDS011;3174;53.486;9.568;2023-04-15T13:36:10;7.57;;;5.30;;
6282;SDS011;3174;53.486;9.568;2023-04-15T13:38:38;6.53;;;4.80;;
6282;SDS011;3174;53.486;9.568;2023-04-15T13:41:06;9.17;;;5.10;;
6282;SDS011;3174;53.486;9.568;2023-04-15T13:43:34;7.97;;;5.47;;
6282;SDS011;3174;53.486;9.568;2023-04-15T13:46:04;7.87;;;5.40;;
6282;SDS011;3174;53.486;9.568;2023-04-15T13:48:32;7.17;;;4.30;;
6282;SDS011;3174;53.486;9.568;2023-04-15T13:51:00;8.07;;;4.90;;
6282;SDS011;3174;53.486;9.568;2023-04-15T13:53:28;8.53;;;5.57;;
6282;SDS011;3174;53.486;9.568;2023-04-15T13:56:04;7.87;;;5.17;;
6282;SDS011;3174;53.486;9.568;2023-04-15T13:58:32;7.70;;;5.07;;
6282;SDS011;3174;53.486;9.568;2023-04-15T14:01:00;8.27;;;5.30;;
6282;SDS011;3174;53.486;9.568;2023-04-15T14:03:32;9.00;;;5.13;;
6282;SDS011;3174;53.486;9.568;2023-04-15T14:06:01;7.97;;;5.20;;
6282;SDS011;3174;53.486;9.568;2023-04-15T14:08:29;7.63;;;5.17;;
6282;SDS011;3174;53.486;9.568;2023-04-15T14:10:58;10.53;;;5.57;;
6282;SDS011;3174;53.486;9.568;2023-04-15T14:13:26;7.97;;;5.50;;
6282;SDS011;3174;53.486;9.568;2023-04-15T14:15:54;8.07;;;5.30;;
6282;SDS011;3174;53.486;9.568;2023-04-15T14:18:23;7.10;;;5.23;;
6282;SDS011;3174;53.486;9.568;2023-04-15T14:20:52;7.90;;;5.00;;
6282;SDS011;3174;53.486;9.568;2023-04-15T14:23:20;9.47;;;5.30;;
6282;SDS011;3174;53.486;9.568;2023-04-15T14:25:49;8.50;;;5.70;;
6282;SDS011;3174;53.486;9.568;2023-04-15T14:28:17;9.17;;;5.17;;
6282;SDS011;3174;53.486;9.568;2023-04-15T14:30:45;12.47;;;6.00;;
6282;SDS011;3174;53.486;9.568;2023-04-15T14:33:13;7.20;;;5.30;;
6282;SDS011;3174;53.486;9.568;2023-04-15T14:35:41;5.83;;;5.10;;
6282;SDS011;3174;53.486;9.568;2023-04-15T14:38:10;9.13;;;5.53;;
6282;SDS011;3174;53.486;9.568;2023-04-15T14:40:39;7.93;;;5.30;;
6282;SDS011;3174;53.486;9.568;2023-04-15T14:43:07;7.77;;;5.00;;
6282;SDS011;3174;53.486;9.568;2023-04-15T14:45:36;7.50;;;5.17;;
6282;SDS011;3174;53.486;9.568;2023-04-15T14:48:08;7.43;;;5.47;;
6282;SDS011;3174;53.486;9.568;2023-04-15T14:50:38;8.23;;;5.17;;
6282;SDS011;3174;53.486;9.568;2023-04-15T14:53:06;7.70;;;4.87;;
6282;SDS011;3174;53.486;9.568;2023-04-15T14:55:35;7.00;;;5.17;;
6282;SDS011;3174;53.486;9.568;2023-04-15T14:58:03;6.60;;;5.10;;
6282;SDS011;3174;53.486;9.568;2023-04-15T15:00:34;6.10;;;4.47;;
6282;SDS011;3174;53.486;9.568;2023-04-15T15:03:04;8.27;;;5.00;;
6282;SDS011;3174;53.486;9.568;2023-04-15T15:05:38;7.93;;;5.27;;
6282;SDS011;3174;53.486;9.568;2023-04-15T15:08:06;9.67;;;5.30;;
6282;SDS011;3174;53.486;9.568;2023-04-15T15:10:36;8.50;;;5.47;;
6282;SDS011;3174;53.486;9.568;2023-04-15T15:13:14;8.83;;;5.40;;
6282;SDS011;3174;53.486;9.568;2023-04-15T15:15:42;9.20;;;5.73;;
6282;SDS011;3174;53.486;9.568;2023-04-15T15:18:11;10.17;;;5.47;;
6282;SDS011;3174;53.486;9.568;2023-04-15T15:20:39;7.33;;;5.13;;
6282;SDS011;3174;53.486;9.568;2023-04-15T15:23:07;9.67;;;5.50;;
6282;SDS011;3174;53.486;9.568;2023-04-15T15:25:36;9.40;;;5.20;;
6282;SDS011;3174;53.486;9.568;2023-04-15T15:28:04;7.27;;;5.20;;